createdAt,value
2023-02-05T00:01:34.931Z,9.05
2023-02-05T00:04:01.572Z,9.09
2023-02-05T00:06:28.127Z,8.95
2023-02-05T00:08:57.199Z,9.10
2023-02-05T00:11:24.747Z,9.06
2023-02-05T00:13:53.580Z,9.06
2023-02-05T00:16:22.170Z,9.06
2023-02-05T00:18:49.411Z,9.05
2023-02-05T00:21:17.152Z,9.05
2023-02-05T00:23:43.993Z,9.03
2023-02-05T00:26:10.949Z,9.05
2023-02-05T00:28:40.373Z,8.99
2023-02-05T00:31:14.410Z,9.04
2023-02-05T00:33:41.178Z,9.02
2023-02-05T00:36:12.688Z,9.01
2023-02-05T00:38:40.156Z,9.03
2023-02-05T00:41:06.788Z,9.02
2023-02-05T00:43:33.326Z,8.96
2023-02-05T00:45:59.898Z,8.98
2023-02-05T00:48:26.758Z,8.98
2023-02-05T00:50:54.880Z,8.87
2023-02-05T00:53:22.756Z,8.99
2023-02-05T00:55:50.281Z,8.96
2023-02-05T00:58:17.234Z,8.94
2023-02-05T01:00:44.331Z,8.92
2023-02-05T01:03:11.098Z,8.93
2023-02-05T01:05:41.332Z,8.94
2023-02-05T01:08:10.606Z,8.94
2023-02-05T01:10:37.644Z,8.82
2023-02-05T01:13:07.806Z,8.83
2023-02-05T01:15:34.813Z,8.89
2023-02-05T01:18:03.988Z,8.86
2023-02-05T01:20:30.705Z,8.85
2023-02-05T01:22:57.386Z,8.83
2023-02-05T01:25:24.188Z,8.83
2023-02-05T01:27:50.840Z,8.81
2023-02-05T01:30:20.401Z,8.73
2023-02-05T01:32:47.042Z,8.80
2023-02-05T01:35:15.959Z,8.66
2023-02-05T01:37:42.554Z,8.76
2023-02-05T01:40:13.753Z,8.75
2023-02-05T01:42:40.303Z,8.77
2023-02-05T01:45:54.810Z,8.75
2023-02-05T01:48:29.753Z,8.70
2023-02-05T01:51:04.738Z,8.74
2023-02-05T01:53:34.863Z,8.73
2023-02-05T01:56:14.939Z,8.70
2023-02-05T01:58:49.579Z,8.69
2023-02-05T02:01:16.284Z,8.68
2023-02-05T02:03:46.347Z,8.50
2023-02-05T02:06:12.889Z,8.67
2023-02-05T02:08:39.459Z,8.64
2023-02-05T02:11:10.134Z,8.64
2023-02-05T02:13:40.129Z,8.57
2023-02-05T02:16:08.161Z,8.58
2023-02-05T02:18:36.841Z,8.63
2023-02-05T02:21:28.021Z,8.60
2023-02-05T02:24:23.805Z,8.59
2023-02-05T02:27:14.871Z,8.58
2023-02-05T02:30:02.452Z,8.55
2023-02-05T02:32:45.843Z,8.54
2023-02-05T02:35:44.614Z,8.53
2023-02-05T02:38:15.472Z,8.53
2023-02-05T02:40:51.911Z,8.33
2023-02-05T02:43:30.787Z,8.46
2023-02-05T02:46:05.504Z,8.49
2023-02-05T02:48:35.139Z,8.13
2023-02-05T02:51:03.068Z,8.44
2023-02-05T02:53:42.839Z,8.47
2023-02-05T02:56:12.375Z,8.36
2023-02-05T02:59:19.728Z,8.35
2023-02-05T03:01:54.048Z,8.44
2023-02-05T03:04:30.884Z,8.22
2023-02-05T03:07:06.294Z,8.41
2023-02-05T03:09:40.105Z,6.90
2023-02-05T03:12:07.343Z,8.36
2023-02-05T03:14:36.186Z,8.35
2023-02-05T03:17:02.884Z,8.35
2023-02-05T03:19:29.986Z,8.22
2023-02-05T03:22:04.890Z,8.27
2023-02-05T03:24:32.587Z,8.28
2023-02-05T03:26:59.214Z,8.21
2023-02-05T03:29:32.904Z,8.32
2023-02-05T03:32:29.863Z,8.30
2023-02-05T03:35:17.681Z,8.30
2023-02-05T03:37:53.434Z,8.30
2023-02-05T03:40:43.718Z,8.22
2023-02-05T03:43:35.177Z,8.26
2023-02-05T03:46:13.265Z,8.27
2023-02-05T03:48:57.936Z,8.28
2023-02-05T03:51:51.972Z,8.27
2023-02-05T03:54:23.059Z,8.24
2023-02-05T03:57:05.047Z,8.06
2023-02-05T03:59:33.916Z,8.21
2023-02-05T04:02:01.061Z,8.22
2023-02-05T04:04:27.908Z,8.18
2023-02-05T04:06:55.080Z,8.22
2023-02-05T04:09:21.628Z,8.17
2023-02-05T04:11:48.187Z,8.21
2023-02-05T04:14:15.436Z,8.21
2023-02-05T04:16:42.069Z,8.19
2023-02-05T04:19:08.720Z,8.20
2023-02-05T04:21:35.314Z,8.18
2023-02-05T04:24:02.736Z,8.04
2023-02-05T04:26:29.354Z,8.14
2023-02-05T04:28:56.003Z,8.03
2023-02-05T04:31:22.811Z,7.36
2023-02-05T04:33:49.397Z,7.99
2023-02-05T04:36:16.023Z,8.10
2023-02-05T04:38:45.087Z,8.05
2023-02-05T04:41:11.716Z,8.12
2023-02-05T04:43:38.296Z,8.13
2023-02-05T04:46:09.608Z,8.15
2023-02-05T04:48:36.749Z,8.16
2023-02-05T04:51:08.234Z,8.16
2023-02-05T04:53:37.186Z,7.99
2023-02-05T04:56:12.753Z,8.16
2023-02-05T04:58:40.067Z,8.18
2023-02-05T05:01:12.474Z,8.17
2023-02-05T05:03:45.456Z,8.17
2023-02-05T05:06:13.276Z,8.18
2023-02-05T05:08:40.380Z,8.18
2023-02-05T05:11:10.082Z,8.08
2023-02-05T05:13:39.740Z,7.83
2023-02-05T05:16:07.452Z,8.16
2023-02-05T05:18:35.095Z,8.15
2023-02-05T05:21:02.317Z,8.02
2023-02-05T05:23:29.184Z,8.15
2023-02-05T05:25:55.802Z,8.08
2023-02-05T05:28:22.485Z,8.08
2023-02-05T05:30:49.067Z,8.13
2023-02-05T05:33:16.034Z,8.02
2023-02-05T05:35:42.889Z,8.00
2023-02-05T05:38:09.432Z,8.06
2023-02-05T05:40:54.639Z,8.16
2023-02-05T05:43:40.227Z,8.15
2023-02-05T05:46:08.413Z,8.15
2023-02-05T05:48:37.276Z,8.10
2023-02-05T05:51:04.359Z,8.14
2023-02-05T05:53:34.309Z,8.11
2023-02-05T05:56:00.865Z,8.01
2023-02-05T05:58:29.570Z,8.08
2023-02-05T06:00:56.236Z,8.06
2023-02-05T06:03:24.014Z,7.98
2023-02-05T06:05:50.593Z,8.02
2023-02-05T06:08:17.228Z,8.03
2023-02-05T06:10:44.197Z,8.01
2023-02-05T06:13:13.384Z,7.98
2023-02-05T06:15:39.995Z,7.96
2023-02-05T06:18:06.596Z,7.63
2023-02-05T06:20:33.239Z,7.97
2023-02-05T06:22:59.870Z,7.92
2023-02-05T06:25:26.690Z,7.94
2023-02-05T06:27:55.641Z,7.85
2023-02-05T06:30:22.244Z,7.87
2023-02-05T06:32:48.830Z,7.83
2023-02-05T06:35:15.684Z,7.70
2023-02-05T06:37:47.415Z,7.64
2023-02-05T06:40:15.899Z,7.63
2023-02-05T06:42:47.310Z,7.43
2023-02-05T06:45:14.552Z,7.49
2023-02-05T06:47:41.098Z,7.46
2023-02-05T06:50:08.063Z,7.40
2023-02-05T06:52:37.632Z,7.36
2023-02-05T06:55:04.826Z,7.21
2023-02-05T06:57:32.036Z,7.31
2023-02-05T06:59:58.642Z,7.27
2023-02-05T07:02:25.436Z,7.11
2023-02-05T07:04:52.097Z,7.22
2023-02-05T07:07:18.799Z,7.20
2023-02-05T07:09:45.390Z,7.18
2023-02-05T07:12:12.124Z,7.19
2023-02-05T07:14:39.877Z,7.01
2023-02-05T07:17:08.672Z,7.08
2023-02-05T07:19:36.569Z,7.06
2023-02-05T07:22:04.068Z,7.17
2023-02-05T07:24:31.704Z,7.12
2023-02-05T07:26:58.399Z,6.74
2023-02-05T07:29:24.997Z,7.07
2023-02-05T07:31:52.660Z,7.00
2023-02-05T07:34:19.861Z,6.92
2023-02-05T07:36:52.179Z,6.94
2023-02-05T07:39:19.413Z,6.97
2023-02-05T07:41:45.990Z,6.91
2023-02-05T07:44:13.228Z,6.95
2023-02-05T07:46:39.997Z,6.93
2023-02-05T07:49:06.582Z,6.97
2023-02-05T07:51:35.461Z,7.00
2023-02-05T07:54:07.388Z,6.90
2023-02-05T07:56:34.025Z,7.07
2023-02-05T07:59:00.849Z,7.06
2023-02-05T08:01:27.706Z,7.04
2023-02-05T08:03:54.350Z,7.12
2023-02-05T08:06:26.206Z,7.13
2023-02-05T08:08:52.962Z,6.92
2023-02-05T08:11:19.850Z,7.22
2023-02-05T08:13:46.976Z,6.44
2023-02-05T08:16:17.694Z,7.27
2023-02-05T08:18:49.459Z,7.25
2023-02-05T08:21:16.780Z,7.17
2023-02-05T08:23:43.364Z,7.27
2023-02-05T08:26:10.042Z,7.31
2023-02-05T08:28:36.606Z,7.30
2023-02-05T08:31:09.736Z,7.32
2023-02-05T08:33:36.389Z,7.33
2023-02-05T08:36:03.020Z,7.44
2023-02-05T08:38:29.679Z,7.50
2023-02-05T08:40:56.293Z,7.51
2023-02-05T08:43:23.012Z,7.49
2023-02-05T08:45:49.652Z,7.55
2023-02-05T08:48:16.307Z,7.58
2023-02-05T08:50:46.186Z,7.62
2023-02-05T08:53:12.745Z,7.54
2023-02-05T08:55:39.362Z,7.65
2023-02-05T08:58:06.098Z,7.68
2023-02-05T09:00:33.307Z,7.68
2023-02-05T09:02:59.922Z,7.73
2023-02-05T09:05:28.847Z,7.74
2023-02-05T09:07:55.591Z,7.76
2023-02-05T09:10:24.750Z,7.80
2023-02-05T09:12:52.023Z,7.80
2023-02-05T09:15:20.942Z,7.72
2023-02-05T09:17:48.053Z,7.86
2023-02-05T09:20:14.641Z,7.90
2023-02-05T09:22:41.305Z,7.87
2023-02-05T09:25:11.749Z,7.62
2023-02-05T09:27:38.377Z,7.61
2023-02-05T09:30:08.258Z,7.97
2023-02-05T09:32:34.874Z,7.98
2023-02-05T09:35:09.903Z,8.03
2023-02-05T09:37:39.311Z,8.01
2023-02-05T09:40:20.549Z,7.95
2023-02-05T09:42:57.030Z,7.98
2023-02-05T09:46:04.488Z,8.05
2023-02-05T09:48:33.987Z,8.06
2023-02-05T09:51:01.564Z,7.73
2023-02-05T09:53:35.534Z,8.02
2023-02-05T09:56:06.673Z,7.76
2023-02-05T09:58:37.985Z,8.08
2023-02-05T10:01:12.560Z,8.11
2023-02-05T10:03:49.611Z,8.14
2023-02-05T10:06:19.912Z,8.22
2023-02-05T10:09:25.840Z,8.29
2023-02-05T10:12:09.400Z,8.30
2023-02-05T10:14:42.049Z,8.35
2023-02-05T10:17:36.613Z,8.32
2023-02-05T10:20:20.739Z,8.33
2023-02-05T10:23:07.051Z,8.53
2023-02-05T10:25:45.447Z,8.55
2023-02-05T10:28:31.695Z,8.46
2023-02-05T10:31:19.844Z,8.43
2023-02-05T10:33:49.447Z,8.45
2023-02-05T10:36:21.918Z,8.45
2023-02-05T10:38:51.205Z,8.42
2023-02-05T10:41:43.219Z,8.56
2023-02-05T10:44:22.036Z,8.64
2023-02-05T10:46:55.266Z,8.54
2023-02-05T10:49:28.603Z,8.79
2023-02-05T10:51:57.688Z,8.75
2023-02-05T10:54:29.100Z,8.83
2023-02-05T10:57:01.783Z,8.74
2023-02-05T10:59:34.621Z,8.69
2023-02-05T11:02:04.453Z,8.73
2023-02-05T11:04:38.275Z,8.80
2023-02-05T11:07:13.528Z,8.82
2023-02-05T11:09:40.369Z,8.97
2023-02-05T11:12:18.891Z,9.00
2023-02-05T11:14:46.689Z,9.07
2023-02-05T11:17:21.088Z,9.09
2023-02-05T11:19:54.284Z,8.96
2023-02-05T11:22:33.304Z,8.90
2023-02-05T11:25:16.563Z,8.94
2023-02-05T11:27:54.693Z,8.99
2023-02-05T11:30:50.403Z,8.99
2023-02-05T11:33:24.738Z,8.62
2023-02-05T11:36:03.846Z,9.04
2023-02-05T11:38:39.889Z,9.07
2023-02-05T11:41:08.306Z,9.01
2023-02-05T11:43:38.122Z,8.91
2023-02-05T11:46:08.402Z,8.99
2023-02-05T11:48:38.368Z,8.92
2023-02-05T11:51:08.146Z,8.82
2023-02-05T11:53:39.242Z,8.60
2023-02-05T11:56:14.088Z,9.02
2023-02-05T11:58:40.707Z,8.99
2023-02-05T12:01:24.199Z,9.01
2023-02-05T12:04:21.204Z,9.04
2023-02-05T12:06:55.358Z,8.87
2023-02-05T12:09:24.226Z,9.03
2023-02-05T12:12:06.587Z,8.95
2023-02-05T12:14:38.456Z,9.15
2023-02-05T12:17:20.282Z,9.18
2023-02-05T12:20:09.995Z,9.13
2023-02-05T12:22:45.330Z,9.11
2023-02-05T12:25:25.302Z,9.16
2023-02-05T12:28:07.795Z,9.05
2023-02-05T12:30:42.400Z,9.18
2023-02-05T12:33:19.630Z,9.21
2023-02-05T12:36:11.459Z,9.23
2023-02-05T12:38:52.113Z,9.23
2023-02-05T12:41:43.720Z,9.28
2023-02-05T12:44:32.294Z,9.23
2023-02-05T12:47:12.309Z,9.06
2023-02-05T12:50:14.446Z,9.24
2023-02-05T12:53:00.848Z,9.35
2023-02-05T12:55:51.786Z,9.05
2023-02-05T12:58:20.932Z,9.06
2023-02-05T13:00:54.784Z,9.25
2023-02-05T13:03:36.489Z,9.27
2023-02-05T13:06:13.730Z,9.17
2023-02-05T13:09:13.320Z,9.22
2023-02-05T13:12:05.113Z,9.17
2023-02-05T13:14:43.479Z,9.17
2023-02-05T13:17:21.044Z,8.98
2023-02-05T13:19:53.254Z,8.85
2023-02-05T13:22:41.166Z,9.19
2023-02-05T13:25:39.852Z,9.13
2023-02-05T13:28:33.686Z,9.14
2023-02-05T13:31:06.479Z,9.29
2023-02-05T13:33:33.099Z,9.30
2023-02-05T13:36:18.543Z,9.50
2023-02-05T13:38:57.469Z,9.51
2023-02-05T13:41:56.243Z,9.38
2023-02-05T13:44:41.483Z,9.39
2023-02-05T13:47:29.798Z,9.27
2023-02-05T13:50:22.393Z,9.12
2023-02-05T13:53:06.155Z,9.09
2023-02-05T13:55:57.432Z,9.14
2023-02-05T13:58:48.377Z,9.05
2023-02-05T14:01:20.319Z,9.26
2023-02-05T14:04:32.632Z,9.34
2023-02-05T14:07:02.973Z,9.25
2023-02-05T14:09:41.429Z,9.12
2023-02-05T14:12:12.170Z,9.00
2023-02-05T14:14:41.133Z,9.06
2023-02-05T14:17:31.151Z,8.99
2023-02-05T14:19:58.991Z,8.98
2023-02-05T14:22:42.299Z,9.00
2023-02-05T14:25:42.911Z,8.98
2023-02-05T14:28:12.531Z,9.03
2023-02-05T14:31:05.739Z,9.09
2023-02-05T14:33:45.422Z,8.82
2023-02-05T14:36:17.963Z,9.20
2023-02-05T14:38:51.458Z,8.93
2023-02-05T14:41:22.309Z,9.01
2023-02-05T14:44:02.124Z,9.06
2023-02-05T14:46:39.937Z,8.99
2023-02-05T14:49:22.521Z,9.07
2023-02-05T14:51:54.633Z,9.00
2023-02-05T14:54:24.140Z,8.93
2023-02-05T14:57:09.732Z,8.74
2023-02-05T14:59:47.948Z,8.80
2023-02-05T15:02:51.600Z,8.72
2023-02-05T15:05:39.201Z,8.66
2023-02-05T15:08:24.425Z,8.63
2023-02-05T15:11:00.168Z,8.63
2023-02-05T15:13:26.925Z,8.65
2023-02-05T15:16:18.841Z,8.71
2023-02-05T15:18:55.179Z,8.74
2023-02-05T15:21:21.709Z,8.73
2023-02-05T15:23:58.598Z,8.68
2023-02-05T15:26:42.357Z,8.68
2023-02-05T15:29:32.599Z,8.68
2023-02-05T15:32:03.839Z,8.73
2023-02-05T15:34:38.628Z,8.73
2023-02-05T15:37:29.831Z,8.74
2023-02-05T15:39:57.758Z,8.69
2023-02-05T15:42:40.644Z,8.73
2023-02-05T15:45:26.555Z,8.63
2023-02-05T15:47:59.648Z,8.60
2023-02-05T15:50:27.914Z,8.51
2023-02-05T15:52:55.417Z,8.44
2023-02-05T15:55:24.706Z,8.27
2023-02-05T15:57:51.652Z,8.30
2023-02-05T16:00:29.315Z,8.28
2023-02-05T16:03:01.880Z,8.20
2023-02-05T16:05:32.660Z,8.08
2023-02-05T16:08:01.949Z,8.13
2023-02-05T16:10:35.063Z,7.84
2023-02-05T16:13:05.335Z,8.04
2023-02-05T16:15:45.159Z,7.96
2023-02-05T16:18:20.344Z,7.74
2023-02-05T16:20:53.486Z,7.83
2023-02-05T16:23:35.158Z,7.65
2023-02-05T16:26:15.223Z,7.71
2023-02-05T16:28:48.384Z,7.68
2023-02-05T16:31:21.280Z,7.65
2023-02-05T16:33:53.725Z,7.60
2023-02-05T16:36:31.873Z,7.53
2023-02-05T16:39:07.382Z,7.46
2023-02-05T16:41:40.380Z,7.42
2023-02-05T16:44:25.625Z,6.99
2023-02-05T16:47:19.187Z,7.33
2023-02-05T16:49:47.769Z,7.31
2023-02-05T16:52:32.466Z,7.31
2023-02-05T16:55:05.665Z,7.23
2023-02-05T16:57:36.690Z,7.07
2023-02-05T17:00:25.764Z,7.21
2023-02-05T17:02:55.457Z,7.17
2023-02-05T17:05:28.584Z,7.11
2023-02-05T17:07:58.167Z,7.00
2023-02-05T17:10:25.432Z,7.03
2023-02-05T17:13:05.077Z,6.97
2023-02-05T17:15:40.309Z,6.93
2023-02-05T17:18:29.448Z,6.89
2023-02-05T17:21:21.508Z,6.84
2023-02-05T17:23:49.816Z,6.76
2023-02-05T17:26:16.998Z,6.64
2023-02-05T17:28:46.825Z,6.75
2023-02-05T17:31:14.337Z,6.58
2023-02-05T17:33:43.224Z,6.69
2023-02-05T17:36:17.796Z,6.67
2023-02-05T17:38:45.398Z,6.63
2023-02-05T17:41:41.278Z,6.60
2023-02-05T17:44:12.317Z,6.55
2023-02-05T17:46:39.584Z,6.38
2023-02-05T17:49:06.624Z,6.47
2023-02-05T17:51:33.332Z,6.49
2023-02-05T17:54:02.999Z,6.11
2023-02-05T17:56:29.838Z,6.04
2023-02-05T17:58:58.213Z,6.39
2023-02-05T18:01:25.004Z,6.42
2023-02-05T18:03:51.657Z,6.39
2023-02-05T18:06:19.198Z,5.90
2023-02-05T18:08:45.995Z,6.31
2023-02-05T18:11:15.088Z,5.98
2023-02-05T18:13:41.721Z,6.21
2023-02-05T18:16:12.289Z,6.26
2023-02-05T18:18:39.290Z,6.19
2023-02-05T18:21:07.328Z,6.10
2023-02-05T18:23:33.960Z,6.18
2023-02-05T18:26:00.987Z,6.19
2023-02-05T18:28:28.542Z,6.17
2023-02-05T18:31:03.668Z,6.09
2023-02-05T18:33:30.611Z,6.16
2023-02-05T18:36:07.892Z,5.95
2023-02-05T18:38:38.254Z,5.97
2023-02-05T18:41:05.895Z,6.09
2023-02-05T18:43:36.351Z,6.07
2023-02-05T18:46:11.233Z,5.40
2023-02-05T18:48:45.680Z,6.00
2023-02-05T18:51:18.598Z,5.97
2023-02-05T18:53:46.101Z,5.81
2023-02-05T18:56:16.287Z,5.93
2023-02-05T18:58:44.531Z,5.89
2023-02-05T19:01:16.831Z,5.86
2023-02-05T19:03:46.328Z,5.79
2023-02-05T19:06:17.118Z,5.77
2023-02-05T19:08:43.969Z,5.71
2023-02-05T19:11:13.633Z,5.76
2023-02-05T19:13:40.697Z,5.62
2023-02-05T19:16:12.733Z,5.60
2023-02-05T19:18:40.620Z,5.65
2023-02-05T19:21:12.789Z,5.66
2023-02-05T19:23:39.970Z,5.47
2023-02-05T19:26:14.215Z,5.55
2023-02-05T19:28:41.515Z,5.55
2023-02-05T19:31:15.040Z,5.52
2023-02-05T19:33:42.247Z,5.48
2023-02-05T19:36:10.681Z,5.45
2023-02-05T19:38:39.168Z,5.42
2023-02-05T19:41:09.461Z,5.21
2023-02-05T19:43:36.165Z,5.36
2023-02-05T19:46:10.130Z,5.27
2023-02-05T19:48:36.807Z,5.25
2023-02-05T19:51:08.475Z,5.20
2023-02-05T19:53:38.920Z,5.19
2023-02-05T19:56:27.245Z,5.18
2023-02-05T19:58:55.329Z,5.13
2023-02-05T20:01:32.666Z,5.11
2023-02-05T20:04:16.877Z,5.05
2023-02-05T20:06:46.490Z,5.07
2023-02-05T20:09:14.465Z,4.92
2023-02-05T20:11:43.630Z,4.91
2023-02-05T20:14:11.317Z,5.03
2023-02-05T20:16:41.918Z,5.00
2023-02-05T20:19:11.065Z,5.03
2023-02-05T20:21:38.576Z,5.05
2023-02-05T20:24:07.455Z,5.04
2023-02-05T20:26:35.168Z,5.05
2023-02-05T20:29:23.082Z,4.86
2023-02-05T20:31:51.507Z,5.01
2023-02-05T20:34:25.628Z,5.03
2023-02-05T20:36:58.026Z,5.04
2023-02-05T20:39:28.793Z,5.04
2023-02-05T20:41:57.985Z,5.02
2023-02-05T20:44:26.826Z,4.84
2023-02-05T20:46:54.011Z,4.91
2023-02-05T20:49:20.780Z,4.96
2023-02-05T20:51:47.565Z,4.94
2023-02-05T20:54:14.228Z,4.95
2023-02-05T20:56:41.557Z,4.94
2023-02-05T20:59:09.594Z,4.77
2023-02-05T21:01:37.801Z,4.89
2023-02-05T21:04:06.688Z,4.85
2023-02-05T21:06:36.555Z,4.98
2023-02-05T21:09:04.455Z,4.92
2023-02-05T21:11:31.618Z,4.89
2023-02-05T21:13:58.872Z,4.87
2023-02-05T21:16:27.722Z,4.85
2023-02-05T21:18:55.647Z,4.84
2023-02-05T21:21:24.629Z,4.66
2023-02-05T21:23:59.159Z,4.82
2023-02-05T21:26:39.992Z,4.79
2023-02-05T21:29:15.265Z,4.67
2023-02-05T21:31:46.365Z,4.66
2023-02-05T21:34:15.635Z,4.69
2023-02-05T21:36:42.290Z,4.72
2023-02-05T21:39:10.820Z,4.64
2023-02-05T21:41:37.632Z,4.56
2023-02-05T21:44:05.013Z,4.67
2023-02-05T21:46:31.882Z,4.65
2023-02-05T21:49:04.177Z,4.65
2023-02-05T21:51:34.642Z,4.58
2023-02-05T21:54:03.860Z,4.61
2023-02-05T21:56:50.727Z,4.60
2023-02-05T21:59:19.439Z,4.60
2023-02-05T22:01:46.166Z,4.56
2023-02-05T22:04:16.342Z,4.51
2023-02-05T22:06:43.765Z,4.42
2023-02-05T22:09:13.880Z,4.50
2023-02-05T22:11:40.775Z,4.47
2023-02-05T22:14:08.683Z,4.07
2023-02-05T22:16:36.652Z,4.42
2023-02-05T22:19:04.600Z,4.32
2023-02-05T22:21:34.900Z,4.33
2023-02-05T22:24:02.843Z,4.34
2023-02-05T22:26:32.274Z,4.19
2023-02-05T22:29:02.317Z,4.15
2023-02-05T22:31:29.671Z,4.19
2023-02-05T22:33:57.024Z,4.21
2023-02-05T22:36:26.694Z,4.18
2023-02-05T22:38:54.394Z,4.16
2023-02-05T22:41:22.669Z,4.12
2023-02-05T22:43:49.677Z,4.10
2023-02-05T22:46:21.137Z,3.88
2023-02-05T22:48:49.162Z,4.10
2023-02-05T22:51:29.554Z,4.03
2023-02-05T22:53:56.522Z,3.94
2023-02-05T22:56:23.620Z,3.92
2023-02-05T22:58:50.633Z,4.00
2023-02-05T23:01:21.376Z,3.87
2023-02-05T23:03:50.847Z,3.97
2023-02-05T23:06:21.472Z,3.96
2023-02-05T23:09:03.179Z,3.96
2023-02-05T23:11:31.500Z,3.94
2023-02-05T23:14:00.506Z,3.82
2023-02-05T23:16:30.665Z,3.92
2023-02-05T23:19:00.791Z,3.82
2023-02-05T23:21:29.849Z,3.87
2023-02-05T23:23:57.042Z,3.68
2023-02-05T23:26:30.770Z,3.81
2023-02-05T23:28:58.037Z,3.77
2023-02-05T23:31:27.906Z,3.76
2023-02-05T23:33:54.936Z,3.67
2023-02-05T23:36:21.775Z,3.72
2023-02-05T23:38:48.985Z,3.60
2023-02-05T23:41:35.454Z,3.69
2023-02-05T23:44:22.909Z,3.68
2023-02-05T23:46:54.257Z,3.65
2023-02-05T23:49:23.111Z,3.63
2023-02-05T23:51:51.043Z,3.62
2023-02-05T23:54:19.940Z,3.62
2023-02-05T23:56:47.013Z,3.60
2023-02-05T23:59:14.725Z,3.60
